Time;durP1;ratioP1;P1;durP2;ratioP2;P2;SDS_P1;SDS_P2;PMS_P1;PMS_P2;Temp;Humidity;BMP_temperature;BMP_pressure;BME280_temperature;BME280_humidity;BME280_pressure;Samples;Min_cycle;Max_cycle;Signal;HPM_P1;HPM_P2
2022/12/29 00:08:49;;;;;;;2.85;1.50;;;10.30;99.90;;;;;;6342281;22;20046;-90
2022/12/29 00:11:33;;;;;;;2.93;1.40;;;10.30;99.90;;;;;;6265468;22;20019;-91
2022/12/29 00:16:45;;;;;;;3.85;1.65;;;10.30;99.90;;;;;;6342490;22;20018;-92
2022/12/29 00:36:41;;;;;;;3.63;1.65;;;10.30;99.90;;;;;;6342087;22;20046;-90
2022/12/29 00:44:20;;;;;;;3.70;1.52;;;10.30;99.90;;;;;;6342810;22;20023;-91
2022/12/29 00:46:46;;;;;;;2.88;1.65;;;10.40;99.90;;;;;;6315396;22;20077;-90
2022/12/29 00:49:31;;;;;;;3.17;1.67;;;10.40;99.90;;;;;;6313949;22;20014;-87
2022/12/29 00:56:03;;;;;;;4.13;1.80;;;10.40;99.90;;;;;;6343604;22;20017;-88
2022/12/29 00:58:30;;;;;;;3.13;1.33;;;10.50;99.90;;;;;;6313881;22;20019;-90
2022/12/29 01:01:03;;;;;;;;;;;10.50;99.90;;;;;;6317688;22;20014;-95
2022/12/29 01:03:30;;;;;;;2.90;1.40;;;10.50;99.90;;;;;;6315965;22;19985;-95
2022/12/29 01:06:12;;;;;;;4.63;1.80;;;10.50;99.90;;;;;;6315087;22;20018;-93
2022/12/29 01:08:38;;;;;;;3.85;1.77;;;10.60;99.90;;;;;;6318598;22;20393;-92
2022/12/29 01:11:07;;;;;;;3.63;1.73;;;10.60;99.90;;;;;;6319034;22;20089;-94
2022/12/29 01:13:40;;;;;;;2.85;1.35;;;10.60;99.90;;;;;;6323967;22;20019;-93
2022/12/29 01:16:08;;;;;;;2.83;1.40;;;10.60;99.90;;;;;;6348481;22;20481;-90
2022/12/29 01:18:37;;;;;;;4.13;1.90;;;10.60;99.90;;;;;;6320616;22;20069;-92
2022/12/29 01:21:05;;;;;;;3.50;1.55;;;10.60;99.90;;;;;;6316740;22;20018;-92
2022/12/29 01:23:32;;;;;;;4.40;1.90;;;10.60;99.90;;;;;;6317211;22;20014;-94
2022/12/29 01:26:10;;;;;;;3.33;1.67;;;10.60;99.90;;;;;;6320448;22;20019;-94
2022/12/29 01:28:39;;;;;;;3.10;1.60;;;10.70;99.90;;;;;;6321500;22;20014;-89
2022/12/29 01:31:06;;;;;;;3.13;1.60;;;10.70;99.90;;;;;;6293005;22;20069;-89
2022/12/29 01:33:33;;;;;;;3.95;1.70;;;10.70;99.90;;;;;;6319740;22;20022;-91
2022/12/29 01:36:07;;;;;;;4.32;1.80;;;10.70;99.90;;;;;;6316010;22;20019;-92
2022/12/29 01:38:35;;;;;;;3.03;1.50;;;10.70;99.90;;;;;;6314528;22;20019;-89
2022/12/29 01:41:00;;;;;;;4.10;1.77;;;10.70;99.90;;;;;;6317113;22;20018;-92
2022/12/29 01:43:48;;;;;;;3.17;1.60;;;10.70;99.90;;;;;;6316426;22;20093;-89
2022/12/29 01:46:20;;;;;;;3.80;1.50;;;10.70;99.90;;;;;;6316080;22;20026;-91
2022/12/29 01:48:48;;;;;;;2.72;1.50;;;10.60;99.90;;;;;;6317988;22;20018;-90
2022/12/29 01:51:15;;;;;;;3.42;1.90;;;10.60;99.90;;;;;;6321613;22;20018;-90
2022/12/29 01:53:43;;;;;;;3.90;1.80;;;10.60;99.90;;;;;;6316753;22;20350;-91
2022/12/29 01:56:13;;;;;;;3.22;1.70;;;10.60;99.90;;;;;;6315911;22;20019;-92
2022/12/29 01:58:43;;;;;;;4.68;1.70;;;10.60;99.90;;;;;;6321199;22;20102;-95
2022/12/29 02:01:09;;;;;;;2.75;1.50;;;10.60;99.90;;;;;;6315627;22;20015;-95
2022/12/29 02:03:36;;;;;;;3.60;1.65;;;10.50;99.90;;;;;;6317108;22;20015;-92
2022/12/29 02:06:10;;;;;;;3.70;1.65;;;10.50;99.90;;;;;;6315983;22;20019;-92
2022/12/29 02:08:40;;;;;;;3.67;1.63;;;10.50;99.90;;;;;;6343513;22;20435;-90
2022/12/29 02:11:07;;;;;;;3.28;1.58;;;10.40;99.90;;;;;;6316190;22;20018;-91
2022/12/29 02:13:38;;;;;;;;;;;10.40;99.90;;;;;;6313770;22;20045;-91
2022/12/29 02:16:14;;;;;;;3.33;1.70;;;10.40;99.90;;;;;;6290665;22;19953;-95
2022/12/29 02:19:19;;;;;;;4.00;1.70;;;10.40;99.90;;;;;;6316440;22;20111;-92
2022/12/29 02:22:00;;;;;;;3.70;1.58;;;10.40;99.90;;;;;;6331401;22;20049;-94
2022/12/29 02:24:54;;;;;;;3.22;1.63;;;10.30;99.90;;;;;;6317101;22;20015;-93
2022/12/29 02:27:40;;;;;;;3.55;1.83;;;10.30;99.90;;;;;;6317752;22;20041;-95
2022/12/29 02:30:27;;;;;;;4.07;1.88;;;10.30;99.90;;;;;;6320789;22;20493;-94
2022/12/29 02:33:07;;;;;;;5.38;1.50;;;10.30;99.90;;;;;;6317071;22;20011;-91
2022/12/29 02:35:43;;;;;;;3.30;1.40;;;10.30;99.90;;;;;;6319699;22;20015;-95
2022/12/29 02:38:27;;;;;;;4.28;1.60;;;10.30;99.90;;;;;;6317111;22;20022;-91
2022/12/29 02:41:09;;;;;;;3.22;1.40;;;10.30;99.90;;;;;;6317552;22;20014;-94
2022/12/29 02:43:46;;;;;;;3.65;1.58;;;10.30;99.90;;;;;;6322125;22;20041;-91
2022/12/29 02:46:47;;;;;;;3.05;1.27;;;10.30;99.90;;;;;;6320588;22;20041;-95
2022/12/29 02:49:22;;;;;;;3.30;1.27;;;10.30;99.90;;;;;;6322329;22;20015;-95
2022/12/29 02:52:14;;;;;;;3.75;1.10;;;10.30;99.90;;;;;;6322473;22;20014;-94
2022/12/29 02:54:40;;;;;;;2.92;1.10;;;10.30;99.90;;;;;;6321948;22;20019;-92
2022/12/29 02:57:15;;;;;;;2.63;1.10;;;10.30;99.90;;;;;;6319341;22;20420;-93
2022/12/29 02:59:43;;;;;;;2.63;1.10;;;10.30;99.90;;;;;;6319141;22;20101;-92
2022/12/29 03:02:24;;;;;;;2.78;1.02;;;10.30;99.90;;;;;;6320239;22;20015;-94
2022/12/29 03:05:28;;;;;;;2.25;1.00;;;10.30;99.90;;;;;;6318239;22;20440;-94
2022/12/29 03:08:19;;;;;;;3.75;1.13;;;10.30;99.90;;;;;;6316347;22;20043;-90
2022/12/29 03:12:07;;;;;;;2.25;0.88;;;10.30;99.90;;;;;;6315757;22;20014;-90
2022/12/29 03:17:04;;;;;;;4.03;1.02;;;10.40;99.90;;;;;;6347565;22;20023;-91
2022/12/29 03:19:36;;;;;;;3.08;1.25;;;10.40;99.90;;;;;;6317624;22;20018;-94
2022/12/29 03:25:25;;;;;;;1.77;0.85;;;10.40;99.90;;;;;;6345284;22;20030;-93
2022/12/29 03:28:27;;;;;;;3.85;0.70;;;10.40;99.90;;;;;;6321963;22;20057;-96
2022/12/29 03:30:53;;;;;;;1.90;0.70;;;10.50;99.90;;;;;;6298078;22;20486;-90
2022/12/29 03:33:25;;;;;;;2.22;0.65;;;10.50;99.90;;;;;;6321034;22;20042;-91
2022/12/29 03:35:55;;;;;;;1.58;0.82;;;10.50;99.90;;;;;;6317371;22;20075;-90
2022/12/29 03:38:36;;;;;;;1.45;0.60;;;10.50;99.90;;;;;;6317305;22;20080;-92
2022/12/29 03:41:07;;;;;;;2.63;0.70;;;10.50;99.90;;;;;;6318730;22;20014;-91
2022/12/29 03:43:33;;;;;;;1.05;0.57;;;10.50;99.90;;;;;;6344932;22;20061;-94
2022/12/29 03:45:59;;;;;;;2.35;0.52;;;10.50;99.90;;;;;;6320522;22;20516;-90
2022/12/29 03:48:37;;;;;;;1.87;0.60;;;10.50;99.90;;;;;;6347470;22;20105;-93
2022/12/29 03:51:02;;;;;;;2.40;0.40;;;10.50;99.90;;;;;;6318531;22;20072;-91
2022/12/29 03:53:28;;;;;;;3.33;0.50;;;10.50;99.90;;;;;;6319148;22;20014;-93
2022/12/29 03:55:54;;;;;;;3.50;0.97;;;10.50;99.90;;;;;;6294655;22;20023;-91
2022/12/29 03:58:20;;;;;;;2.47;0.60;;;10.50;99.90;;;;;;6296369;22;20022;-95
2022/12/29 04:00:46;;;;;;;0.80;0.47;;;10.50;99.90;;;;;;6319574;22;20026;-93
2022/12/29 04:03:11;;;;;;;2.17;0.80;;;10.50;99.90;;;;;;6296060;22;20015;-92
2022/12/29 04:05:37;;;;;;;1.10;0.33;;;10.50;99.90;;;;;;6314196;22;20019;-94
2022/12/29 04:08:03;;;;;;;1.80;0.57;;;10.50;99.90;;;;;;6313939;22;20073;-94
2022/12/29 04:10:28;;;;;;;1.97;0.67;;;10.50;99.90;;;;;;6315115;22;20019;-91
2022/12/29 04:12:54;;;;;;;2.10;0.50;;;10.50;99.90;;;;;;6315900;22;20015;-89
2022/12/29 04:15:20;;;;;;;1.60;0.60;;;10.50;99.90;;;;;;6292524;22;20022;-90
2022/12/29 04:17:46;;;;;;;2.13;0.60;;;10.50;99.90;;;;;;6320759;22;20015;-91
2022/12/29 04:23:03;;;;;;;1.77;0.52;;;10.50;99.90;;;;;;6344860;22;20072;-90
2022/12/29 04:25:31;;;;;;;2.00;0.65;;;10.50;99.90;;;;;;6348776;22;20015;-95
2022/12/29 04:27:58;;;;;;;1.05;0.43;;;10.50;99.90;;;;;;6324628;22;20015;-92
2022/12/29 04:30:24;;;;;;;1.83;0.80;;;10.50;99.90;;;;;;6325041;22;20086;-90
2022/12/29 04:32:50;;;;;;;1.45;0.35;;;10.50;99.90;;;;;;6325205;22;20022;-91
2022/12/29 04:35:16;;;;;;;1.17;0.50;;;10.50;99.90;;;;;;6296309;22;20015;-95
2022/12/29 04:37:42;;;;;;;2.03;0.50;;;10.50;99.90;;;;;;6322185;22;20444;-94
2022/12/29 04:40:09;;;;;;;1.88;0.50;;;10.50;99.90;;;;;;6351489;22;20018;-89
2022/12/29 04:42:36;;;;;;;2.55;0.38;;;10.50;99.90;;;;;;6326010;22;20019;-88
2022/12/29 04:45:02;;;;;;;2.45;0.30;;;10.50;99.90;;;;;;6323607;22;20015;-92
2022/12/29 04:47:32;;;;;;;2.55;0.32;;;10.50;99.90;;;;;;6323588;22;20110;-93
2022/12/29 04:49:58;;;;;;;0.30;0.13;;;10.50;99.90;;;;;;6324238;22;20022;-92
2022/12/29 04:52:24;;;;;;;4.10;0.57;;;10.50;99.90;;;;;;6298794;22;20015;-90
2022/12/29 04:54:49;;;;;;;3.37;0.60;;;10.50;99.90;;;;;;6321761;22;20044;-92
2022/12/29 04:57:15;;;;;;;2.67;0.57;;;10.50;99.90;;;;;;6293957;22;20015;-90
2022/12/29 04:59:41;;;;;;;1.67;0.30;;;10.50;99.90;;;;;;6297118;22;20034;-95
2022/12/29 05:02:08;;;;;;;2.37;0.40;;;10.50;99.90;;;;;;6318918;22;20019;-90
2022/12/29 05:04:34;;;;;;;1.67;0.40;;;10.40;99.90;;;;;;6317865;22;20014;-94
2022/12/29 05:07:00;;;;;;;4.53;1.63;;;10.40;99.90;;;;;;6321398;22;20015;-90
2022/12/29 05:09:26;;;;;;;3.05;0.60;;;10.40;99.90;;;;;;6324241;22;20015;-93
2022/12/29 05:11:53;;;;;;;2.57;0.30;;;10.40;99.90;;;;;;6318474;22;20093;-96
2022/12/29 05:14:19;;;;;;;1.98;0.50;;;10.30;99.90;;;;;;6342887;22;20448;-93
2022/12/29 05:16:45;;;;;;;3.77;0.40;;;10.30;99.90;;;;;;6317354;22;20038;-95
2022/12/29 05:19:10;;;;;;;4.33;1.57;;;10.30;99.90;;;;;;6295102;22;20018;-92
2022/12/29 05:21:36;;;;;;;1.60;0.20;;;10.30;99.90;;;;;;6325983;22;20068;-93
2022/12/29 05:24:02;;;;;;;3.93;0.40;;;10.20;99.90;;;;;;6297951;22;20316;-90
2022/12/29 05:26:28;;;;;;;1.58;0.40;;;10.20;99.90;;;;;;6348197;22;20025;-91
2022/12/29 05:28:54;;;;;;;4.00;1.17;;;10.20;99.90;;;;;;6323321;22;20034;-90
2022/12/29 05:31:19;;;;;;;1.07;0.87;;;10.20;99.90;;;;;;6297926;22;20026;-90
2022/12/29 05:33:45;;;;;;;4.07;0.47;;;10.10;99.90;;;;;;6325544;22;20057;-89
2022/12/29 05:36:11;;;;;;;4.27;0.50;;;10.10;99.90;;;;;;6298118;22;20026;-90
2022/12/29 05:38:37;;;;;;;3.78;0.60;;;10.10;99.90;;;;;;6291448;22;20044;-91
2022/12/29 05:41:03;;;;;;;2.73;0.43;;;10.10;99.90;;;;;;6318372;22;20049;-91
2022/12/29 05:43:28;;;;;;;1.60;0.40;;;10.10;99.90;;;;;;6295227;22;20022;-91
2022/12/29 05:45:56;;;;;;;5.00;0.60;;;10.10;99.90;;;;;;6347926;22;20025;-93
2022/12/29 05:48:26;;;;;;;4.10;0.80;;;10.10;99.90;;;;;;6320085;22;20065;-96
2022/12/29 05:50:52;;;;;;;;;;;10.00;99.90;;;;;;6291275;22;20443;-96
2022/12/29 05:53:18;;;;;;;2.88;0.40;;;10.00;99.90;;;;;;6320605;22;19915;-94
2022/12/29 05:55:48;;;;;;;5.43;0.50;;;10.00;99.90;;;;;;6348905;22;20378;-88
2022/12/29 05:58:14;;;;;;;2.38;0.50;;;10.00;99.90;;;;;;6292387;22;20049;-93
2022/12/29 06:00:40;;;;;;;2.72;0.82;;;10.00;99.90;;;;;;6296594;22;20019;-88
2022/12/29 06:03:06;;;;;;;1.80;0.63;;;10.00;99.90;;;;;;6318854;22;20471;-89
2022/12/29 06:05:31;;;;;;;3.37;0.50;;;10.10;99.90;;;;;;6315530;22;20026;-89
2022/12/29 06:07:57;;;;;;;2.10;0.50;;;10.00;99.90;;;;;;6319674;22;20332;-92
2022/12/29 06:10:23;;;;;;;3.50;0.47;;;10.00;99.90;;;;;;6294929;22;20019;-87
2022/12/29 06:12:49;;;;;;;2.43;0.53;;;10.10;99.90;;;;;;6322735;22;20023;-93
2022/12/29 06:15:15;;;;;;;1.80;0.50;;;10.00;99.90;;;;;;6322756;22;20022;-93
2022/12/29 06:17:41;;;;;;;4.25;0.90;;;10.00;99.90;;;;;;6323718;22;20019;-90
2022/12/29 06:20:07;;;;;;;3.60;0.80;;;10.10;99.90;;;;;;6297017;22;20090;-90
2022/12/29 06:22:55;;;;;;;;;;;10.00;99.90;;;;;;6322829;22;20059;-94
2022/12/29 06:25:20;;;;;;;3.67;0.55;;;10.00;99.90;;;;;;6322222;22;19921;-89
2022/12/29 06:27:46;;;;;;;5.33;0.47;;;10.10;99.90;;;;;;6321614;22;20010;-92
2022/12/29 06:30:13;;;;;;;2.70;0.43;;;10.00;99.90;;;;;;6296069;22;20028;-93
2022/12/29 06:32:39;;;;;;;2.90;0.98;;;10.00;99.90;;;;;;6322528;22;20010;-90
2022/12/29 06:35:08;;;;;;;5.23;0.40;;;10.00;99.90;;;;;;6321060;22;20028;-96
2022/12/29 06:37:33;;;;;;;2.47;0.35;;;10.00;99.90;;;;;;6320679;22;20018;-94
2022/12/29 06:40:01;;;;;;;4.00;0.40;;;10.00;99.90;;;;;;6372048;22;20041;-89
2022/12/29 06:42:26;;;;;;;5.65;0.93;;;10.00;99.90;;;;;;6297947;22;20019;-93
2022/12/29 06:44:52;;;;;;;1.57;0.50;;;10.00;99.90;;;;;;6292759;22;20022;-92
2022/12/29 06:47:18;;;;;;;0.70;0.23;;;9.90;99.90;;;;;;6323175;22;20052;-89
2022/12/29 06:49:44;;;;;;;3.67;0.53;;;9.90;99.90;;;;;;6322911;22;20245;-89
2022/12/29 06:52:10;;;;;;;6.32;0.88;;;9.90;99.90;;;;;;6349013;22;20046;-89
2022/12/29 06:54:36;;;;;;;5.15;0.75;;;9.90;99.90;;;;;;6346624;22;20010;-94
2022/12/29 06:57:11;;;;;;;5.07;0.50;;;9.90;99.90;;;;;;6303535;22;20110;-92
2022/12/29 06:59:37;;;;;;;5.13;0.60;;;9.90;99.90;;;;;;6296716;22;20028;-93
2022/12/29 07:02:03;;;;;;;2.37;0.33;;;9.90;99.90;;;;;;6296610;22;20019;-91
2022/12/29 07:04:29;;;;;;;6.03;0.50;;;9.90;99.90;;;;;;6316013;22;20015;-88
2022/12/29 07:06:56;;;;;;;8.70;1.50;;;9.90;99.90;;;;;;6316873;22;20015;-91
2022/12/29 07:09:22;;;;;;;4.07;0.45;;;9.90;99.90;;;;;;6315909;22;20014;-94
2022/12/29 07:11:47;;;;;;;4.53;1.60;;;9.90;99.90;;;;;;6316352;22;20057;-95
2022/12/29 07:14:13;;;;;;;2.97;0.40;;;9.80;99.90;;;;;;6316687;22;20022;-92
2022/12/29 07:16:39;;;;;;;4.77;0.57;;;9.80;99.90;;;;;;6315675;22;20015;-92
2022/12/29 07:19:05;;;;;;;3.00;1.23;;;9.80;99.90;;;;;;6293963;22;20037;-93
2022/12/29 07:21:31;;;;;;;6.25;0.80;;;9.80;99.90;;;;;;6322030;22;20014;-93
2022/12/29 07:23:57;;;;;;;4.60;0.93;;;9.80;99.90;;;;;;6323700;22;20011;-91
2022/12/29 07:26:22;;;;;;;2.87;0.50;;;9.90;99.90;;;;;;6297569;22;20022;-90
2022/12/29 07:28:48;;;;;;;0.93;0.30;;;9.80;99.90;;;;;;6319762;22;20007;-90
2022/12/29 07:31:20;;;;;;;5.27;0.70;;;9.80;99.90;;;;;;6295548;22;20018;-87
2022/12/29 07:33:47;;;;;;;5.60;0.70;;;9.90;99.90;;;;;;6346745;22;20010;-89
2022/12/29 07:36:14;;;;;;;5.38;0.60;;;9.90;99.90;;;;;;6316742;22;20019;-94
2022/12/29 07:38:40;;;;;;;3.70;0.68;;;9.90;99.90;;;;;;6291135;22;20007;-96
2022/12/29 07:41:06;;;;;;;4.47;0.43;;;9.90;99.90;;;;;;6292761;22;20019;-90
2022/12/29 07:43:35;;;;;;;5.75;0.40;;;9.90;99.90;;;;;;6326058;22;20015;-92
2022/12/29 07:46:01;;;;;;;3.83;0.70;;;9.90;99.90;;;;;;6315921;22;20030;-88
2022/12/29 07:48:26;;;;;;;4.90;0.80;;;9.90;99.90;;;;;;6290193;22;20011;-96
2022/12/29 07:51:13;;;;;;;5.17;0.63;;;9.90;99.90;;;;;;6294068;22;20022;-94
2022/12/29 07:53:38;;;;;;;5.90;0.63;;;9.90;99.90;;;;;;6323512;22;20423;-94
2022/12/29 07:56:05;;;;;;;7.47;0.73;;;9.90;99.90;;;;;;6294245;22;20029;-94
2022/12/29 07:58:31;;;;;;;4.65;0.85;;;9.90;99.90;;;;;;6351131;22;20097;-90
2022/12/29 08:00:57;;;;;;;7.50;0.70;;;10.00;99.90;;;;;;6320395;22;20015;-94
2022/12/29 08:03:25;;;;;;;3.47;0.80;;;9.90;99.90;;;;;;6323911;22;20038;-95
2022/12/29 08:25:08;;;;;;;2.20;0.63;;;9.90;99.90;;;;;;6356011;22;20339;-94
2022/12/29 08:41:40;;;;;;;5.75;0.82;;;9.90;99.90;;;;;;6405012;22;20022;-89
2022/12/29 08:44:06;;;;;;;7.43;0.73;;;9.90;99.90;;;;;;6383670;22;20018;-93
2022/12/29 08:46:41;;;;;;;3.70;0.57;;;9.90;99.90;;;;;;6381516;22;20045;-93
2022/12/29 08:49:24;;;;;;;5.68;0.82;;;9.80;99.90;;;;;;6376438;22;20060;-96
2022/12/29 08:51:50;;;;;;;6.93;0.93;;;9.70;99.90;;;;;;6351629;22;20092;-89
2022/12/29 08:54:53;;;;;;;1.95;0.50;;;9.60;99.90;;;;;;6384102;22;20024;-89
2022/12/29 09:01:06;;;;;;;4.60;0.60;;;9.60;99.90;;;;;;6411291;22;20047;-92
2022/12/29 09:03:32;;;;;;;7.78;0.70;;;9.50;99.90;;;;;;6376035;22;20048;-91
2022/12/29 09:05:57;;;;;;;2.93;0.57;;;9.50;99.90;;;;;;6375679;22;20014;-93
2022/12/29 09:08:23;;;;;;;4.63;0.70;;;9.50;99.90;;;;;;6377525;22;20331;-91
2022/12/29 09:11:17;;;;;;;6.63;0.73;;;9.50;99.90;;;;;;6389952;22;20017;-94
